Time;durP1;ratioP1;P1;durP2;ratioP2;P2;SDS_P1;SDS_P2;PMS_P1;PMS_P2;Temp;Humidity;BMP_temperature;BMP_pressure;BME280_temperature;BME280_humidity;BME280_pressure;Samples;Min_cycle;Max_cycle;Signal;HPM_P1;HPM_P2
2021/07/02 00:00:35;;;;;;;10.59;4.97;;;;;;;;;;374809;140;857603;-61
2021/07/02 00:01:37;;;;;;;10.69;4.83;;;;;;;;;;375090;142;857232;-62
2021/07/02 00:02:42;;;;;;;8.49;4.82;;;;;;;;;;377614;140;857424;-62
2021/07/02 00:03:44;;;;;;;13.94;4.94;;;;;;;;;;375240;142;858362;-60
2021/07/02 00:04:45;;;;;;;10.25;4.94;;;;;;;;;;374430;140;857274;-60
2021/07/02 00:05:47;;;;;;;11.66;4.84;;;;;;;;;;374326;142;858983;-61
2021/07/02 00:06:49;;;;;;;8.57;4.60;;;;;;;;;;374151;140;857177;-61
2021/07/02 00:07:50;;;;;;;11.01;4.37;;;;;;;;;;375462;140;864775;-62
2021/07/02 00:08:52;;;;;;;10.92;4.70;;;;;;;;;;375761;142;858107;-61
2021/07/02 00:09:54;;;;;;;8.60;4.83;;;;;;;;;;376298;140;858178;-61
2021/07/02 00:10:56;;;;;;;9.86;4.70;;;;;;;;;;377297;140;858241;-62
2021/07/02 00:11:57;;;;;;;9.91;4.90;;;;;;;;;;378860;140;857315;-61
2021/07/02 00:12:59;;;;;;;16.56;5.86;;;;;;;;;;377726;142;859492;-61
2021/07/02 00:14:00;;;;;;;11.59;5.82;;;;;;;;;;374661;140;858651;-62
2021/07/02 00:15:03;;;;;;;12.22;5.45;;;;;;;;;;375178;140;857379;-61
2021/07/02 00:16:05;;;;;;;10.53;5.10;;;;;;;;;;377776;142;857442;-60
2021/07/02 00:17:07;;;;;;;14.93;5.65;;;;;;;;;;377250;140;857275;-61
2021/07/02 00:18:09;;;;;;;11.92;5.19;;;;;;;;;;374495;140;864923;-62
2021/07/02 00:19:10;;;;;;;7.47;5.11;;;;;;;;;;372741;142;858895;-61
2021/07/02 00:20:13;;;;;;;8.04;4.74;;;;;;;;;;375974;142;864810;-60
2021/07/02 00:21:15;;;;;;;6.51;5.07;;;;;;;;;;377177;140;858518;-60
2021/07/02 00:22:16;;;;;;;6.84;4.62;;;;;;;;;;377427;142;859261;-61
2021/07/02 00:23:18;;;;;;;10.08;4.77;;;;;;;;;;371325;142;857387;-61
2021/07/02 00:24:19;;;;;;;8.31;4.82;;;;;;;;;;374041;140;865995;-61
2021/07/02 00:25:21;;;;;;;10.60;5.66;;;;;;;;;;378216;140;858981;-60
2021/07/02 00:26:23;;;;;;;7.97;4.91;;;;;;;;;;377370;142;858716;-61
2021/07/02 00:27:24;;;;;;;8.96;4.89;;;;;;;;;;376053;142;858831;-61
2021/07/02 00:28:26;;;;;;;9.29;4.81;;;;;;;;;;375050;141;858853;-61
2021/07/02 00:29:28;;;;;;;9.21;4.59;;;;;;;;;;376980;142;858051;-61
2021/07/02 00:30:30;;;;;;;10.25;4.74;;;;;;;;;;377294;142;857169;-61
2021/07/02 00:31:32;;;;;;;11.93;5.39;;;;;;;;;;374634;140;857292;-61
2021/07/02 00:32:34;;;;;;;11.10;4.81;;;;;;;;;;375075;140;857285;-60
2021/07/02 00:33:35;;;;;;;11.73;4.89;;;;;;;;;;372379;144;867052;-60
2021/07/02 00:34:37;;;;;;;8.36;5.12;;;;;;;;;;376212;140;867282;-61
2021/07/02 00:35:40;;;;;;;8.11;4.84;;;;;;;;;;373944;140;859588;-60
2021/07/02 00:36:42;;;;;;;11.10;5.16;;;;;;;;;;374051;142;864558;-60
2021/07/02 00:37:44;;;;;;;9.53;4.88;;;;;;;;;;375131;140;866671;-60
2021/07/02 00:38:45;;;;;;;10.44;5.08;;;;;;;;;;372517;141;865946;-61
2021/07/02 00:39:47;;;;;;;8.94;4.69;;;;;;;;;;369936;140;859313;-61
2021/07/02 00:40:49;;;;;;;10.17;5.36;;;;;;;;;;374262;142;857769;-61
2021/07/02 00:41:50;;;;;;;13.54;5.74;;;;;;;;;;375800;140;857231;-61
2021/07/02 00:42:52;;;;;;;8.09;4.20;;;;;;;;;;371544;141;857270;-61
2021/07/02 00:43:54;;;;;;;8.99;5.19;;;;;;;;;;376103;142;857649;-61
2021/07/02 00:44:56;;;;;;;8.37;4.24;;;;;;;;;;374909;140;857242;-60
2021/07/02 00:45:57;;;;;;;8.32;4.74;;;;;;;;;;373704;141;857204;-61
2021/07/02 00:46:59;;;;;;;8.09;5.01;;;;;;;;;;375014;142;858876;-63
2021/07/02 00:48:01;;;;;;;7.51;4.09;;;;;;;;;;375204;142;866048;-61
2021/07/02 00:49:03;;;;;;;9.94;4.50;;;;;;;;;;373712;142;858319;-61
2021/07/02 00:50:05;;;;;;;7.49;4.63;;;;;;;;;;372200;141;857242;-61
2021/07/02 00:51:06;;;;;;;7.49;4.37;;;;;;;;;;375726;142;865263;-61
2021/07/02 00:52:08;;;;;;;8.91;4.69;;;;;;;;;;372888;142;857146;-62
2021/07/02 00:53:11;;;;;;;12.69;4.67;;;;;;;;;;375292;140;864907;-62
2021/07/02 00:54:13;;;;;;;6.92;4.55;;;;;;;;;;376384;142;857301;-62
2021/07/02 00:55:14;;;;;;;10.07;4.73;;;;;;;;;;370754;142;857352;-62
2021/07/02 00:56:18;;;;;;;9.24;5.24;;;;;;;;;;372608;140;857356;-62
2021/07/02 00:57:21;;;;;;;8.47;4.39;;;;;;;;;;372568;142;857292;-62
2021/07/02 00:58:22;;;;;;;8.21;4.42;;;;;;;;;;370313;142;857281;-61
2021/07/02 00:59:24;;;;;;;7.87;4.47;;;;;;;;;;374220;142;857332;-61
2021/07/02 01:00:27;;;;;;;8.79;5.00;;;;;;;;;;376004;141;857299;-62
2021/07/02 01:01:29;;;;;;;8.97;5.26;;;;;;;;;;375172;142;857151;-62
2021/07/02 01:02:30;;;;;;;7.07;4.71;;;;;;;;;;374425;140;859639;-61
2021/07/02 01:03:32;;;;;;;8.99;4.84;;;;;;;;;;372109;140;857322;-61
2021/07/02 01:04:34;;;;;;;9.49;5.05;;;;;;;;;;374428;142;865087;-62
2021/07/02 01:05:35;;;;;;;6.36;5.14;;;;;;;;;;374116;140;857515;-61
2021/07/02 01:06:38;;;;;;;8.64;4.66;;;;;;;;;;371899;141;865293;-60
2021/07/02 01:07:40;;;;;;;7.00;4.66;;;;;;;;;;375929;140;859311;-61
2021/07/02 01:08:42;;;;;;;14.01;5.35;;;;;;;;;;375512;142;857347;-61
2021/07/02 01:09:44;;;;;;;11.41;4.91;;;;;;;;;;374688;142;857187;-61
2021/07/02 01:10:48;;;;;;;15.71;4.58;;;;;;;;;;374941;141;866413;-60
2021/07/02 01:11:49;;;;;;;12.74;4.25;;;;;;;;;;377423;142;857650;-61
2021/07/02 01:12:51;;;;;;;9.52;4.49;;;;;;;;;;377109;140;857245;-60
2021/07/02 01:13:52;;;;;;;11.39;4.86;;;;;;;;;;375969;140;865309;-61
2021/07/02 01:14:54;;;;;;;5.75;3.85;;;;;;;;;;377232;141;857677;-61
2021/07/02 01:15:56;;;;;;;11.06;4.26;;;;;;;;;;378022;142;859226;-61
2021/07/02 01:16:57;;;;;;;11.14;5.34;;;;;;;;;;374169;140;858914;-61
2021/07/02 01:17:59;;;;;;;6.47;4.99;;;;;;;;;;375271;140;864902;-61
2021/07/02 01:19:01;;;;;;;9.26;5.86;;;;;;;;;;377073;142;865270;-62
2021/07/02 01:20:03;;;;;;;8.11;5.32;;;;;;;;;;375153;142;864841;-61
2021/07/02 01:21:04;;;;;;;8.63;5.34;;;;;;;;;;373065;140;857271;-62
2021/07/02 01:22:06;;;;;;;8.24;4.96;;;;;;;;;;372964;142;857159;-61
2021/07/02 01:23:07;;;;;;;11.79;5.04;;;;;;;;;;374183;140;857322;-61
2021/07/02 01:24:09;;;;;;;7.67;4.71;;;;;;;;;;373716;142;858863;-61
2021/07/02 01:25:11;;;;;;;7.67;4.56;;;;;;;;;;374914;139;859142;-61
2021/07/02 01:26:13;;;;;;;8.07;4.91;;;;;;;;;;378995;139;865863;-61
2021/07/02 01:27:15;;;;;;;10.88;4.87;;;;;;;;;;379421;140;858807;-61
2021/07/02 01:28:16;;;;;;;9.08;4.83;;;;;;;;;;379076;140;857449;-61
2021/07/02 01:29:18;;;;;;;9.35;4.76;;;;;;;;;;375024;141;865064;-62
2021/07/02 01:30:21;;;;;;;8.33;4.72;;;;;;;;;;382629;138;864801;-61
2021/07/02 01:31:23;;;;;;;7.69;4.34;;;;;;;;;;380947;138;857441;-61
2021/07/02 01:32:25;;;;;;;7.67;4.80;;;;;;;;;;375846;139;857144;-61
2021/07/02 01:33:26;;;;;;;9.18;4.22;;;;;;;;;;383045;140;857129;-62
2021/07/02 01:34:28;;;;;;;9.11;4.65;;;;;;;;;;380785;139;857188;-61
2021/07/02 01:35:30;;;;;;;15.41;5.08;;;;;;;;;;369960;143;857240;-62
2021/07/02 01:36:32;;;;;;;14.56;4.67;;;;;;;;;;380096;139;857452;-61
2021/07/02 01:37:34;;;;;;;9.90;4.99;;;;;;;;;;377239;139;857337;-61
2021/07/02 01:38:36;;;;;;;8.57;5.39;;;;;;;;;;378724;139;859866;-61
2021/07/02 01:39:37;;;;;;;8.55;5.17;;;;;;;;;;382867;139;865065;-62
2021/07/02 01:40:41;;;;;;;7.31;5.02;;;;;;;;;;378183;138;858731;-61
2021/07/02 01:41:42;;;;;;;9.84;5.31;;;;;;;;;;379412;139;858278;-61
2021/07/02 01:42:44;;;;;;;12.49;4.59;;;;;;;;;;383672;139;857265;-62
2021/07/02 01:43:45;;;;;;;10.06;4.45;;;;;;;;;;382465;139;857205;-61
2021/07/02 01:44:47;;;;;;;10.66;4.79;;;;;;;;;;378371;140;857175;-61
2021/07/02 01:45:48;;;;;;;12.70;4.98;;;;;;;;;;383687;139;858893;-61
2021/07/02 01:46:50;;;;;;;8.99;4.41;;;;;;;;;;377452;139;858115;-61
2021/07/02 01:47:52;;;;;;;8.92;4.94;;;;;;;;;;378563;138;865567;-60
2021/07/02 01:48:53;;;;;;;13.17;4.98;;;;;;;;;;378866;139;860210;-61
2021/07/02 01:49:55;;;;;;;8.71;4.19;;;;;;;;;;380753;139;857225;-61
2021/07/02 01:50:56;;;;;;;12.77;4.90;;;;;;;;;;377655;139;857166;-60
2021/07/02 01:51:58;;;;;;;6.34;4.26;;;;;;;;;;377787;139;865286;-60
2021/07/02 01:52:59;;;;;;;10.76;4.51;;;;;;;;;;379764;138;857208;-61
2021/07/02 01:54:01;;;;;;;8.65;5.26;;;;;;;;;;369541;144;857417;-61
2021/07/02 01:55:03;;;;;;;12.88;4.31;;;;;;;;;;375683;140;857167;-61
2021/07/02 01:56:05;;;;;;;10.29;4.97;;;;;;;;;;382339;138;859044;-61
2021/07/02 01:57:09;;;;;;;12.06;4.63;;;;;;;;;;372201;142;865730;-61
2021/07/02 01:58:10;;;;;;;8.41;4.11;;;;;;;;;;371800;143;857153;-61
2021/07/02 01:59:12;;;;;;;8.74;4.77;;;;;;;;;;375262;141;857407;-61
2021/07/02 02:00:15;;;;;;;12.01;4.16;;;;;;;;;;371171;142;865160;-61
2021/07/02 02:01:17;;;;;;;7.49;4.56;;;;;;;;;;376265;140;858882;-61
2021/07/02 02:02:19;;;;;;;8.01;4.35;;;;;;;;;;371862;142;858102;-61
2021/07/02 02:03:21;;;;;;;9.12;4.36;;;;;;;;;;375154;141;857214;-61
2021/07/02 02:04:22;;;;;;;9.13;4.20;;;;;;;;;;372272;142;864764;-62
2021/07/02 02:05:24;;;;;;;9.96;4.22;;;;;;;;;;379754;139;857925;-62
2021/07/02 02:06:26;;;;;;;7.47;4.56;;;;;;;;;;379057;138;857221;-61
2021/07/02 02:07:28;;;;;;;10.99;4.61;;;;;;;;;;375728;138;857655;-61
2021/07/02 02:08:29;;;;;;;11.12;5.12;;;;;;;;;;374205;140;857220;-61
2021/07/02 02:09:31;;;;;;;9.81;4.69;;;;;;;;;;380856;140;860975;-60
2021/07/02 02:10:34;;;;;;;8.56;6.01;;;;;;;;;;380923;138;857198;-61
2021/07/02 02:11:35;;;;;;;12.43;5.70;;;;;;;;;;381635;140;857304;-61
2021/07/02 02:12:37;;;;;;;11.27;5.24;;;;;;;;;;380993;138;859067;-60
2021/07/02 02:13:38;;;;;;;8.24;5.71;;;;;;;;;;379531;138;859018;-60
2021/07/02 02:14:40;;;;;;;8.15;5.27;;;;;;;;;;380379;140;858982;-62
2021/07/02 02:15:42;;;;;;;7.59;5.23;;;;;;;;;;376704;140;864906;-61
2021/07/02 02:16:44;;;;;;;6.71;5.43;;;;;;;;;;379740;138;858654;-63
2021/07/02 02:17:46;;;;;;;11.48;5.06;;;;;;;;;;380753;138;857237;-60
2021/07/02 02:18:47;;;;;;;12.34;4.81;;;;;;;;;;383072;138;858177;-61
2021/07/02 02:19:49;;;;;;;10.61;5.05;;;;;;;;;;382759;140;857666;-61
2021/07/02 02:20:51;;;;;;;7.63;5.23;;;;;;;;;;379547;138;857342;-61
2021/07/02 02:21:53;;;;;;;12.44;6.58;;;;;;;;;;381364;138;857208;-60
2021/07/02 02:22:55;;;;;;;10.10;6.22;;;;;;;;;;382168;139;857678;-61
2021/07/02 02:23:56;;;;;;;17.55;8.49;;;;;;;;;;381211;139;857769;-61
2021/07/02 02:24:59;;;;;;;13.14;8.47;;;;;;;;;;382082;138;857996;-62
2021/07/02 02:26:01;;;;;;;14.14;8.94;;;;;;;;;;387060;135;858322;-61
2021/07/02 02:27:03;;;;;;;13.88;9.71;;;;;;;;;;388401;135;867804;-62
2021/07/02 02:28:04;;;;;;;14.93;9.01;;;;;;;;;;386884;136;857334;-60
2021/07/02 02:29:07;;;;;;;14.46;9.87;;;;;;;;;;389949;136;859713;-60
2021/07/02 02:30:09;;;;;;;13.63;9.68;;;;;;;;;;387755;137;864846;-61
2021/07/02 02:31:10;;;;;;;15.39;10.08;;;;;;;;;;384986;136;865107;-62
2021/07/02 02:32:12;;;;;;;17.16;10.64;;;;;;;;;;390690;135;858716;-60
2021/07/02 02:33:14;;;;;;;15.59;10.32;;;;;;;-147.14;100.00;112913.77;389359;138;857740;-61
2021/07/02 02:34:15;;;;;;;14.37;9.22;;;;;;;;;;388381;136;857350;-61
2021/07/02 02:35:17;;;;;;;16.54;8.72;;;;;;;;;;384439;136;864057;-60
2021/07/02 02:36:19;;;;;;;13.65;9.35;;;;;;;;;;388090;138;857324;-61
2021/07/02 02:37:21;;;;;;;16.29;9.79;;;;;;;;;;388491;137;857164;-61
2021/07/02 02:38:22;;;;;;;22.14;10.68;;;;;;;;;;388522;136;865340;-61
2021/07/02 02:39:24;;;;;;;15.09;10.01;;;;;;;;;;386081;136;858727;-61
2021/07/02 02:40:26;;;;;;;15.13;10.95;;;;;;;;;;389474;138;857935;-61
2021/07/02 02:41:28;;;;;;;15.90;10.36;;;;;;;;;;387341;136;861448;-61
2021/07/02 02:42:29;;;;;;;17.77;9.91;;;;;;;;;;388994;135;864873;-61
2021/07/02 02:43:31;;;;;;;15.37;11.44;;;;;;;;;;389998;136;857212;-60
2021/07/02 02:44:32;;;;;;;20.67;11.59;;;;;;;;;;388442;136;857282;-63
2021/07/02 02:45:34;;;;;;;20.13;11.61;;;;;;;;;;388683;136;857413;-61
2021/07/02 02:46:37;;;;;;;17.10;11.01;;;;;;;;;;383200;138;860014;-62
2021/07/02 02:47:38;;;;;;;18.31;11.88;;;;;;;;;;384583;137;859422;-61
2021/07/02 02:48:40;;;;;;;17.34;9.23;;;;;;;;;;389148;136;857305;-63
2021/07/02 02:49:41;;;;;;;14.41;9.61;;;;;;;;;;389891;136;858899;-60
2021/07/02 02:50:44;;;;;;;17.69;10.27;;;;;;;;;;381309;140;858140;-61
2021/07/02 02:51:46;;;;;;;15.42;8.19;;;;;;;;;;388771;135;858490;-62
2021/07/02 02:52:48;;;;;;;9.84;7.55;;;;;;;;;;384573;136;865551;-62
2021/07/02 02:53:49;;;;;;;14.64;8.98;;;;;;;;;;388676;136;857604;-62
2021/07/02 02:54:51;;;;;;;13.27;8.92;;;;;;;;;;387193;138;857332;-61
2021/07/02 02:55:52;;;;;;;12.53;9.52;;;;;;;;;;387138;136;866179;-61
2021/07/02 02:57:03;;;;;;;16.69;9.81;;;;;;;;;;389613;138;858763;-63
2021/07/02 02:58:05;;;;;;;19.47;10.84;;;;;;;;;;388781;136;865517;-61
2021/07/02 02:59:07;;;;;;;15.22;10.25;;;;;;;;;;386932;136;858024;-61
2021/07/02 03:00:10;;;;;;;14.18;9.44;;;;;;;;;;389119;137;857781;-61
2021/07/02 03:01:11;;;;;;;13.49;9.48;;;;;;;;;;392880;136;857302;-61
2021/07/02 03:02:13;;;;;;;11.69;8.71;;;;;;;;;;389484;135;858634;-61
2021/07/02 03:03:14;;;;;;;11.06;8.67;;;;;;;;;;388633;135;857474;-61
2021/07/02 03:04:16;;;;;;;11.50;7.94;;;;;;;;;;384506;139;866781;-60
2021/07/02 03:05:18;;;;;;;12.06;8.13;;;;;;;;;;390339;135;857302;-61
2021/07/02 03:06:19;;;;;;;14.36;10.11;;;;;;;;;;383700;136;857295;-61
2021/07/02 03:07:21;;;;;;;16.31;10.11;;;;;;;;;;388504;135;857206;-64
2021/07/02 03:08:23;;;;;;;15.01;10.22;;;;;;;;;;389408;138;857310;-62
2021/07/02 03:09:24;;;;;;;15.74;9.65;;;;;;;;;;387900;136;858077;-65
2021/07/02 03:10:28;;;;;;;11.72;7.54;;;;;;;;;;387454;135;858781;-64
2021/07/02 03:11:30;;;;;;;13.75;7.67;;;;;;;;;;389546;136;857337;-65
2021/07/02 03:12:31;;;;;;;11.63;7.47;;;;;;;;;;387990;135;858159;-65
2021/07/02 03:13:33;;;;;;;12.29;7.59;;;;;;;;;;388334;136;857831;-65
2021/07/02 03:14:34;;;;;;;11.29;7.06;;;;;;;;;;383977;135;858710;-65
2021/07/02 03:15:36;;;;;;;16.42;9.05;;;;;;;;;;389171;136;859256;-63
2021/07/02 03:16:38;;;;;;;15.71;10.20;;;;;;;;;;388744;135;858660;-65
2021/07/02 03:17:40;;;;;;;15.87;9.49;;;;;;;;;;385145;138;864922;-66
2021/07/02 03:18:41;;;;;;;13.74;9.45;;;;;;;;;;378091;142;857159;-64
2021/07/02 03:19:43;;;;;;;13.62;9.59;;;;;;;;;;377616;141;857765;-62
2021/07/02 03:20:45;;;;;;;14.66;8.96;;;;;;;;;;391245;135;857227;-63
2021/07/02 03:21:46;;;;;;;11.94;9.15;;;;;;;22.85;96.11;151346.77;388980;136;858089;-61
2021/07/02 03:22:48;;;;;;;10.26;7.60;;;;;;;;;;389737;136;860241;-63
2021/07/02 03:23:49;;;;;;;13.86;7.92;;;;;;;;;;385204;136;866003;-62
2021/07/02 03:24:51;;;;;;;9.86;7.52;;;;;;;;;;387833;138;858919;-64
2021/07/02 03:25:53;;;;;;;11.94;7.76;;;;;;;;;;389811;136;859855;-63
2021/07/02 03:26:54;;;;;;;11.91;8.53;;;;;;;;;;387978;136;858561;-64
2021/07/02 03:27:56;;;;;;;11.31;8.24;;;;;;;;;;389141;137;864892;-64
2021/07/02 03:28:57;;;;;;;12.82;8.01;;;;;;;;;;388952;138;857221;-64
2021/07/02 03:29:59;;;;;;;14.67;7.58;;;;;;;;;;388463;136;857172;-63
2021/07/02 03:31:01;;;;;;;13.24;7.84;;;;;;;;;;390282;136;865836;-63
2021/07/02 03:32:03;;;;;;;11.92;7.88;;;;;;;;;;390577;137;865526;-62
2021/07/02 03:33:04;;;;;;;10.33;8.01;;;;;;;;;;381992;139;858592;-60
2021/07/02 03:34:06;;;;;;;10.56;8.06;;;;;;;;;;389479;136;858923;-61
2021/07/02 03:35:08;;;;;;;11.37;7.74;;;;;;;;;;394996;136;857149;-61
2021/07/02 03:36:10;;;;;;;11.06;7.99;;;;;;;;;;388931;136;857112;-62
2021/07/02 03:37:12;;;;;;;8.99;7.83;;;;;;;;;;388633;136;861163;-63
2021/07/02 03:38:13;;;;;;;11.09;8.26;;;;;;;;;;385940;136;857299;-62
2021/07/02 03:39:15;;;;;;;10.90;8.73;;;;;;;;;;381277;141;865135;-62
2021/07/02 03:40:17;;;;;;;8.99;8.08;;;;;;;;;;388535;136;857251;-62
2021/07/02 03:41:19;;;;;;;15.09;8.58;;;;;;;;;;388770;136;857319;-63
2021/07/02 03:42:20;;;;;;;12.10;7.84;;;;;;;;;;390788;135;858963;-60
2021/07/02 03:43:23;;;;;;;10.40;7.98;;;;;;;;;;388876;135;858132;-62
2021/07/02 03:44:24;;;;;;;12.36;8.23;;;;;;;;;;385925;136;857328;-62
2021/07/02 03:45:26;;;;;;;13.75;8.62;;;;;;;;;;389155;136;857213;-62
2021/07/02 03:46:28;;;;;;;12.35;7.44;;;;;;;;;;387783;135;860468;-61
2021/07/02 03:47:30;;;;;;;13.86;7.83;;;;;;;;;;385999;135;858279;-62
2021/07/02 03:48:31;;;;;;;16.01;8.06;;;;;;;;;;388775;136;865055;-60
2021/07/02 03:49:33;;;;;;;11.14;7.81;;;;;;;;;;389166;136;858853;-61
2021/07/02 03:50:34;;;;;;;7.71;6.76;;;;;;;;;;389926;135;859020;-63
2021/07/02 03:51:36;;;;;;;11.06;7.81;;;;;;;;;;388126;136;865139;-62
2021/07/02 03:52:38;;;;;;;11.76;7.61;;;;;;;;;;384221;138;858859;-62
2021/07/02 03:53:40;;;;;;;12.76;8.18;;;;;;;;;;385179;138;859529;-62
2021/07/02 03:54:41;;;;;;;10.74;7.78;;;;;;;;;;388126;135;858225;-62
2021/07/02 03:55:43;;;;;;;12.01;7.49;;;;;;;;;;391787;136;865010;-63
2021/07/02 03:58:06;;;;;;;10.33;7.56;;;;;;;;;;375159;140;857325;-62
2021/07/02 03:59:07;;;;;;;9.19;7.36;;;;;;;;;;376169;140;864808;-62
2021/07/02 04:00:10;;;;;;;10.69;7.09;;;;;;;;;;376948;139;859199;-63
2021/07/02 04:01:12;;;;;;;9.37;7.41;;;;;;;;;;375355;139;865114;-62
2021/07/02 04:02:13;;;;;;;9.60;7.13;;;;;;;;;;388295;135;859737;-63
2021/07/02 04:03:16;;;;;;;10.78;7.11;;;;;;;;;;388330;138;858874;-65
2021/07/02 04:04:17;;;;;;;9.23;7.37;;;;;;;;;;388058;137;865033;-64
2021/07/02 04:05:19;;;;;;;9.11;6.37;;;;;;;;;;388898;135;857296;-65
2021/07/02 04:06:21;;;;;;;8.27;6.99;;;;;;;;;;387529;137;857163;-62
2021/07/02 04:07:24;;;;;;;12.19;7.23;;;;;;;;;;386487;138;857156;-62
2021/07/02 04:08:26;;;;;;;8.99;7.43;;;;;;;;;;386350;136;857218;-65
2021/07/02 04:09:28;;;;;;;13.61;7.50;;;;;;;;;;386475;136;858597;-64
2021/07/02 04:10:30;;;;;;;9.49;7.39;;;;;;;;;;392986;136;864835;-68
2021/07/02 04:11:32;;;;;;;12.53;7.57;;;;;;;;;;390128;136;857369;-67
2021/07/02 04:12:33;;;;;;;8.48;6.97;;;;;;;;;;388942;135;860287;-68
2021/07/02 04:13:35;;;;;;;10.39;7.12;;;;;;;;;;384303;138;859312;-65
2021/07/02 04:14:37;;;;;;;8.82;7.17;;;;;;;;;;388758;137;859047;-67
2021/07/02 04:15:38;;;;;;;9.26;7.45;;;;;;;;;;388635;135;859845;-65
2021/07/02 04:16:42;;;;;;;11.41;7.09;;;;;;;;;;386095;135;858059;-66
2021/07/02 04:17:44;;;;;;;8.64;6.82;;;;;;;;;;387548;135;864900;-67
2021/07/02 04:18:45;;;;;;;8.67;7.77;;;;;;;;;;388883;136;857269;-66
2021/07/02 04:19:47;;;;;;;10.57;7.01;;;;;;;;;;388093;135;857935;-67
2021/07/02 04:20:49;;;;;;;9.66;7.33;;;;;;;;;;388915;138;857157;-68
2021/07/02 04:21:51;;;;;;;9.94;7.33;;;;;;;;;;388351;137;859665;-65
2021/07/02 04:22:52;;;;;;;11.31;7.56;;;;;;;;;;389312;135;864877;-71
2021/07/02 04:23:54;;;;;;;11.85;6.99;;;;;;;;;;387110;137;864894;-67
2021/07/02 04:24:56;;;;;;;11.48;7.85;;;;;;;;;;388332;136;866273;-65
2021/07/02 04:25:57;;;;;;;9.27;7.21;;;;;;;;;;374950;141;858924;-62
2021/07/02 04:26:59;;;;;;;10.73;7.54;;;;;;;;;;366652;144;857800;-64
2021/07/02 04:28:01;;;;;;;9.86;7.35;;;;;;;;;;369784;143;858809;-66
2021/07/02 04:29:02;;;;;;;12.18;7.76;;;;;;;;;;368936;143;858430;-67
2021/07/02 04:30:04;;;;;;;8.76;7.15;;;;;;;;;;368827;143;858304;-66
2021/07/02 04:31:06;;;;;;;8.11;6.94;;;;;;;;;;369459;145;865117;-66
2021/07/02 04:32:07;;;;;;;11.34;7.23;;;;;;;;;;370119;145;857228;-67
2021/07/02 04:33:09;;;;;;;8.53;6.82;;;;;;;;;;366393;145;857318;-65
2021/07/02 04:34:11;;;;;;;10.26;7.62;;;;;;;;;;368457;144;857343;-66
2021/07/02 04:35:12;;;;;;;11.45;7.19;;;;;;;;;;370312;145;858378;-65
2021/07/02 04:36:16;;;;;;;10.23;7.59;;;;;;;;;;369642;143;858024;-65
2021/07/02 04:37:17;;;;;;;8.69;7.56;;;;;;;;;;367579;144;865924;-64
2021/07/02 04:38:19;;;;;;;12.03;7.96;;;;;;;;;;368446;145;857421;-66
2021/07/02 04:39:22;;;;;;;12.21;7.78;;;;;;;;;;368163;143;857429;-66
2021/07/02 04:40:25;;;;;;;9.46;7.69;;;;;;;;;;368990;143;857224;-64
2021/07/02 04:41:27;;;;;;;10.58;7.70;;;;;;;;;;375663;142;858739;-66
2021/07/02 04:42:28;;;;;;;9.54;7.84;;;;;;;;;;370724;142;858354;-67
2021/07/02 04:43:30;;;;;;;13.66;7.69;;;;;;;;;;371999;142;864847;-68
2021/07/02 04:44:32;;;;;;;9.60;7.46;;;;;;;;;;373007;142;857249;-68
2021/07/02 04:45:34;;;;;;;9.19;7.12;;;;;;;;;;370163;144;859428;-68
2021/07/02 04:46:37;;;;;;;10.93;7.41;;;;;;;;;;369195;144;857418;-69
2021/07/02 04:47:38;;;;;;;10.17;7.47;;;;;;;;;;369532;143;857284;-67
2021/07/02 04:48:40;;;;;;;10.34;7.61;;;;;;;;;;373410;142;859197;-68
2021/07/02 04:49:41;;;;;;;8.38;7.25;;;;;;;;;;371927;144;858519;-67
2021/07/02 04:50:43;;;;;;;10.47;7.22;;;;;;;;;;369045;143;857263;-67
2021/07/02 04:51:47;;;;;;;13.07;7.35;;;;;;;;;;370774;144;857300;-67
2021/07/02 04:52:49;;;;;;;9.23;7.21;;;;;;;;;;369861;143;857299;-69
2021/07/02 04:53:50;;;;;;;10.14;7.39;;;;;;;;;;371848;142;857297;-68
2021/07/02 04:54:52;;;;;;;11.50;7.66;;;;;;;;;;370239;144;858994;-68
2021/07/02 04:55:53;;;;;;;11.14;7.20;;;;;;;;;;371305;144;859778;-66
2021/07/02 04:56:55;;;;;;;9.99;7.18;;;;;;;;;;369484;142;858818;-68
2021/07/02 04:57:57;;;;;;;11.26;7.61;;;;;;;;;;371127;143;865223;-66
2021/07/02 04:59:00;;;;;;;8.20;6.77;;;;;;;;;;371549;144;865447;-71
2021/07/02 05:00:04;;;;;;;10.11;7.22;;;;;;;;;;370581;142;857263;-67
2021/07/02 05:01:06;;;;;;;9.65;6.88;;;;;;;;;;370223;141;857314;-66
2021/07/02 05:02:08;;;;;;;9.73;7.23;;;;;;;;;;369529;144;857257;-70
2021/07/02 05:03:10;;;;;;;11.00;7.14;;;;;;;;;;368129;146;857345;-69
2021/07/02 05:04:11;;;;;;;10.81;6.87;;;;;;;;;;366493;144;857392;-72
2021/07/02 05:05:13;;;;;;;8.58;7.06;;;;;;;;;;369523;143;857457;-71
2021/07/02 05:06:14;;;;;;;9.05;6.70;;;;;;;;;;380758;141;859125;-67
2021/07/02 05:07:16;;;;;;;13.37;7.69;;;;;;;;;;381958;138;859192;-69
2021/07/02 05:08:18;;;;;;;17.09;7.54;;;;;;;;;;380945;138;856592;-69
2021/07/02 05:09:19;;;;;;;7.80;7.04;;;;;;;;;;380549;139;857444;-68
2021/07/02 05:10:23;;;;;;;7.47;6.36;;;;;;;;;;371961;141;864947;-68
2021/07/02 05:11:25;;;;;;;7.91;6.55;;;;;;;;;;366297;144;859759;-68
2021/07/02 05:12:28;;;;;;;10.32;7.17;;;;;;;;;;368017;143;857230;-70
2021/07/02 05:13:31;;;;;;;9.70;6.92;;;;;;;;;;371983;142;858833;-72
2021/07/02 05:14:33;;;;;;;8.60;7.31;;;;;;;;;;366466;145;857385;-69
2021/07/02 05:15:34;;;;;;;9.02;7.05;;;;;;;;;;367449;143;859079;-71
2021/07/02 05:16:37;;;;;;;8.59;7.07;;;;;;;;;;368050;143;857779;-66
2021/07/02 05:17:40;;;;;;;9.06;7.16;;;;;;;;;;373755;141;865794;-65
2021/07/02 05:18:41;;;;;;;10.17;6.99;;;;;;;;;;364706;145;857221;-65
2021/07/02 05:19:43;;;;;;;10.81;6.72;;;;;;;;;;372005;143;865000;-65
2021/07/02 05:20:46;;;;;;;7.44;6.49;;;;;;;;;;372423;142;857756;-63
2021/07/02 05:21:48;;;;;;;8.61;6.53;;;;;;;;;;372613;142;857317;-66
2021/07/02 05:22:50;;;;;;;9.72;6.54;;;;;;;;;;372353;142;857597;-64
2021/07/02 05:23:51;;;;;;;10.94;7.02;;;;;;;;;;367364;145;866815;-61
2021/07/02 05:24:53;;;;;;;11.99;6.49;;;;;;;;;;370486;144;859035;-67
2021/07/02 05:25:55;;;;;;;7.51;6.26;;;;;;;;;;370763;141;859076;-67
2021/07/02 05:26:56;;;;;;;8.70;6.25;;;;;;;;;;372570;140;857877;-65
2021/07/02 05:27:58;;;;;;;8.81;6.85;;;;;;;;;;388123;136;866096;-68
2021/07/02 05:29:00;;;;;;;8.64;6.62;;;;;;;;;;388068;135;859030;-68
2021/07/02 05:30:01;;;;;;;7.83;6.64;;;;;;;;;;387491;135;857498;-66
2021/07/02 05:31:03;;;;;;;8.05;6.01;;;;;;;;;;385458;138;864947;-64
2021/07/02 05:32:05;;;;;;;10.23;6.74;;;;;;;;;;387535;136;865028;-63
2021/07/02 05:33:06;;;;;;;10.60;6.61;;;;;;;;;;389109;135;857281;-65
2021/07/02 05:34:08;;;;;;;7.93;6.46;;;;;;;;;;388915;135;864867;-67
2021/07/02 05:35:10;;;;;;;7.52;6.30;;;;;;;;;;390165;135;857238;-68
2021/07/02 05:36:12;;;;;;;13.01;6.47;;;;;;;;;;388209;136;857303;-68
2021/07/02 05:37:14;;;;;;;9.49;6.36;;;;;;;;;;390045;136;857470;-68
2021/07/02 05:38:16;;;;;;;7.96;5.77;;;;;;;;;;391281;136;859271;-68
2021/07/02 05:39:18;;;;;;;8.64;6.59;;;;;;;;;;388443;136;859045;-68
2021/07/02 05:40:21;;;;;;;11.53;6.59;;;;;;;;;;387614;136;859062;-66
2021/07/02 05:41:23;;;;;;;7.21;5.90;;;;;;;;;;382115;139;858157;-68
2021/07/02 05:42:25;;;;;;;8.86;6.19;;;;;;;;;;387331;135;857166;-65
2021/07/02 05:43:26;;;;;;;11.40;6.05;;;;;;;;;;388069;136;858951;-67
2021/07/02 05:44:28;;;;;;;7.47;5.74;;;;;;;;;;388994;136;857162;-65
2021/07/02 05:45:30;;;;;;;7.37;5.51;;;;;;;;;;390687;135;857283;-66
2021/07/02 05:46:33;;;;;;;6.83;6.06;;;;;;;;;;390487;136;858997;-63
2021/07/02 05:47:49;;;;;;;10.70;6.26;;;;;;;;;;388266;135;857252;-64
2021/07/02 05:48:48;;;;;;;10.89;5.99;;;;;;;;;;388690;135;864914;-64
2021/07/02 05:49:50;;;;;;;8.71;6.63;;;;;;;;;;387072;135;859677;-66
2021/07/02 05:50:52;;;;;;;7.30;5.75;;;;;;;;;;386837;135;857333;-64
2021/07/02 05:51:54;;;;;;;7.24;6.48;;;;;;;;;;388273;135;864775;-66
2021/07/02 05:52:56;;;;;;;7.91;5.32;;;;;;;;;;392070;135;857293;-64
2021/07/02 05:53:57;;;;;;;6.42;5.56;;;;;;;;;;389422;135;857255;-66
2021/07/02 05:54:59;;;;;;;10.09;5.91;;;;;;;;;;390923;135;865316;-67
2021/07/02 05:56:01;;;;;;;9.09;5.70;;;;;;;;;;381284;140;864968;-66
2021/07/02 05:57:03;;;;;;;7.75;5.57;;;;;;;;;;388686;135;857353;-66
2021/07/02 05:58:05;;;;;;;6.49;5.40;;;;;;;;;;390198;135;857342;-65
2021/07/02 05:59:07;;;;;;;8.05;5.99;;;;;;;;;;389049;135;857462;-65
2021/07/02 06:00:09;;;;;;;7.91;5.26;;;;;;;;;;387835;135;857344;-64
2021/07/02 06:01:11;;;;;;;9.27;5.95;;;;;;;;;;387974;135;865082;-65
2021/07/02 06:02:13;;;;;;;10.01;5.85;;;;;;;;;;388479;135;859077;-68
2021/07/02 06:03:14;;;;;;;6.01;5.41;;;;;;;;;;393165;135;859318;-68